Latest Coastal Weather Observations for Cape Moreton

IDQ60701

Issued at 5:55 pm EST Friday 31 October 2014 (issued every 10 minutes, with the page automatically refreshed every 10 minutes)

About coastal observations | Map of coastal stations | Coastal observations for QLD | Marine services | Other Formats
Station Details ID: 040043 Name: CAPE MORETON LIGHTHOUSE Lat: -27.03 Lon: 153.47 Height: 99.9 m
Data from the previous 72 hours. | See also: Recent months at Cape Moreton
Date/Time
EST
Temp

°C
Wind Pressure Rain
since 9am
mm
Weather Cloud Vis
km
Sea
Height
m
Swell
Dir
 
Speed
knots
Gust
knots
hPa Trend Height
m
Period
s
Dir
31/05:30pm 22.9 N 18 25 1013.9 - 0.0 - - - - - - -
31/05:00pm 23.4 NNE 19 24 1013.6 - 0.0 - - - - - - -
31/04:30pm 23.6 NNE 18 22 1013.5 - 0.0 - - - - - - -
31/04:00pm 24.1 NNE 17 22 1013.5 - 0.0 - - - - - - -
31/03:30pm 24.0 NNE 18 23 1013.6 - 0.0 - - - - - - -
31/03:00pm 24.8 NNE 15 18 1013.7 - 0.0 - - - - - - -
31/02:30pm 24.8 NNE 17 21 1014.0 - 0.0 - - - - - - -
31/02:00pm 25.0 NNE 15 18 1014.3 - 0.0 - - - - - - -
31/01:30pm 25.7 NNE 12 15 1014.7 - 0.0 - - - - - - -
31/01:00pm 26.1 NNE 11 14 1015.1 - 0.0 - - - - - - -
31/12:30pm 26.0 NNE 11 13 1015.5 - 0.0 - - - - - - -
31/12:00pm 25.4 NNE 9 11 1015.9 - 0.0 - - - - - - -
31/11:30am 25.1 N 7 9 1016.4 - 0.0 - - - - - - -
31/11:00am 25.2 NNE 7 10 1016.5 - 0.0 - - - - - - -
31/10:30am 25.4 N 7 9 1016.7 - 0.0 - - - - - - -
31/10:00am 24.8 N 7 8 1017.2 - 0.0 - - - - - - -
31/09:30am 24.7 N 7 9 1017.2 - 0.0 - - - - - - -
31/09:00am 23.9 N 7 9 1017.3 - 0.0 - - - - - - -
31/08:30am 24.0 N 7 9 1017.5 - 0.0 - - - - - - -
31/08:00am 24.2 N 7 9 1017.4 - 0.0 - - - - - - -
31/07:30am 23.7 N 6 8 1017.2 - 0.0 - - - - - - -
31/07:00am 23.8 NNE 5 7 1016.9 - 0.0 - - - - - - -
31/06:30am 22.6 N 5 7 1016.8 - 0.0 - - - - - - -
31/06:00am 22.3 N 7 9 1016.7 - 0.0 - - - - - - -
31/05:30am 22.4 N 5 6 1016.1 - 0.0 - - - - - - -
31/05:00am 22.3 N 5 6 1015.8 - 0.0 - - - - - - -
31/04:30am 22.1 N 6 9 1015.4 - 0.0 - - - - - - -
31/04:00am 22.1 N 5 8 1015.2 - 0.0 - - - - - - -
31/03:30am 21.9 NNW 8 13 1015.1 - 0.0 - - - - - - -
31/03:00am 22.2 N 8 10 1014.8 - 0.0 - - - - - - -
31/02:30am 22.1 N 6 8 1014.7 - 0.0 - - - - - - -
31/02:00am 22.0 N 7 8 1014.9 - 0.0 - - - - - - -
31/01:30am 22.1 N 6 7 1015.2 - 0.0 - - - - - - -
31/01:00am 22.0 NNE 6 7 1015.1 - 0.0 - - - - - - -
31/12:30am 21.9 N 8 11 1015.4 - 0.0 - - - - - - -
31/12:00am 21.9 N 9 13 1015.6 - 0.0 - - - - - - -
 
Date/Time
EST
Temp

°C
Wind Pressure Rain
since 9am
mm
Weather Cloud Vis
km
Sea
Height
m
Swell
Dir
 
Speed
knots
Gust
knots
hPa Trend Height
m
Period
s
Dir
30/11:30pm 21.7 N 9 12 1015.9 - 0.0 - - - - - - -
30/11:00pm 21.8 N 8 10 1016.1 - 0.0 - - - - - - -
30/10:30pm 21.9 NNE 9 12 1016.5 - 0.0 - - - - - - -
30/10:00pm 22.1 N 11 15 1016.4 - 0.0 - - - - - - -
30/09:30pm 22.0 N 13 16 1016.1 - 0.0 - - - - - - -
30/09:00pm 22.0 NNE 13 17 1016.0 - 0.0 - - - - - - -
30/08:30pm 22.1 NNE 12 15 1015.7 - 0.0 - - - - - - -
30/08:00pm 22.1 NNE 13 16 1015.5 - 0.0 - - - - - - -
30/07:30pm 22.2 NE 14 17 1015.2 - 0.0 - - - - - - -
30/07:00pm 22.1 NE 15 17 1014.9 - 0.0 - - - - - - -
30/06:30pm 22.2 NE 14 17 1014.7 - 0.0 - - - - - - -
30/06:00pm 22.3 NE 15 17 1014.3 - 0.0 - - - - - - -
30/05:30pm 22.4 NE 16 18 1014.1 - 0.0 - - - - - - -
30/05:00pm 22.5 ENE 15 17 1013.9 - 0.0 - - - - - - -
30/04:30pm 22.6 ENE 14 16 1013.8 - 0.0 - - - - - - -
30/04:00pm 22.7 ENE 14 16 1013.9 - 0.0 - - - - - - -
30/03:30pm 22.6 ENE 14 15 1013.8 - 0.0 - - - - - - -
30/03:00pm 23.2 ENE 13 15 1013.8 - 0.0 - - - - - - -
30/02:30pm 23.7 ENE 11 12 1014.1 - 0.0 - - - - - - -
30/02:00pm 24.2 ENE 10 11 1014.6 - 0.0 - - - - - - -
30/01:30pm 24.9 ENE 9 10 1014.9 - 0.0 - - - - - - -
30/01:00pm 25.2 ENE 8 10 1015.3 - 0.0 - - - - - - -
30/12:30pm 26.1 ENE 9 10 1015.5 - 0.0 - - - - - - -
30/12:00pm 25.9 E 9 11 1015.9 - 0.0 - - - - - - -
30/11:30am 25.9 E 9 10 1016.4 - 0.0 - - - - - - -
30/11:00am 25.5 E 9 11 1016.7 - 0.0 - - - - - - -
30/10:30am 24.8 ESE 10 11 1017.1 - 0.0 - - - - - - -
30/10:00am 26.1 ESE 9 11 1017.4 - 0.0 - - - - - - -
30/09:30am 25.5 ESE 9 11 1017.4 - 0.0 - - - - - - -
30/09:00am 25.8 SE 9 11 1017.7 - 0.0 - - - - - - -
30/08:30am 25.6 SE 10 11 1017.9 - 0.0 - - - - - - -
30/08:00am 24.7 SE 10 11 1017.9 - 0.0 - - - - - - -
30/07:30am 24.1 SE 9 11 1017.8 - 0.0 - - - - - - -
30/07:00am 24.0 SE 9 11 1017.6 - 0.0 - - - - - - -
30/06:30am 23.0 ESE 12 13 1017.1 - 0.0 - - - - - - -
30/06:00am 21.8 ESE 13 15 1016.7 - 0.0 - - - - - - -
30/05:30am 21.3 ESE 14 16 1016.1 - 0.0 - - - - - - -
30/05:00am 21.1 SE 14 17 1015.8 - 0.0 - - - - - - -
30/04:30am 21.1 SE 15 17 1015.5 - 0.0 - - - - - - -
30/04:00am 21.3 SE 16 17 1015.3 - 0.0 - - - - - - -
30/03:30am 21.4 SE 14 17 1015.3 - 0.0 - - - - - - -
30/03:00am 21.3 SE 13 15 1015.3 - 0.0 - - - - - - -
30/02:30am 21.5 SE 13 15 1015.5 - 0.0 - - - - - - -
30/02:00am 21.6 SE 13 16 1015.5 - 0.0 - - - - - - -
30/01:30am 21.6 SE 11 13 1015.5 - 0.0 - - - - - - -
30/01:00am 21.7 ESE 11 13 1015.7 - 0.0 - - - - - - -
30/12:30am 21.8 ESE 12 14 1015.9 - 0.0 - - - - - - -
30/12:00am 21.8 ESE 12 15 1016.2 - 0.0 - - - - - - -
 
Date/Time
EST
Temp

°C
Wind Pressure Rain
since 9am
mm
Weather Cloud Vis
km
Sea
Height
m
Swell
Dir
 
Speed
knots
Gust
knots
hPa Trend Height
m
Period
s
Dir
29/11:30pm 21.9 ESE 13 15 1016.7 - 0.0 - - - - - - -
29/11:00pm 22.0 ESE 12 15 1016.8 - 0.0 - - - - - - -
29/10:30pm 22.1 ESE 14 17 1016.9 - 0.0 - - - - - - -
29/10:00pm 22.1 ESE 15 17 1016.9 - 0.0 - - - - - - -
29/09:30pm 22.1 ESE 15 18 1016.8 - 0.0 - - - - - - -
29/09:00pm 22.1 ESE 17 19 1016.7 - 0.0 - - - - - - -
29/08:30pm 22.1 ESE 18 21 1016.5 - 0.0 - - - - - - -
29/08:00pm 21.9 ESE 18 21 1016.1 - 0.0 - - - - - - -
29/07:30pm 22.0 ESE 20 23 1015.7 - 0.0 - - - - - - -
29/07:00pm 21.9 ESE 21 23 1015.4 - 0.0 - - - - - - -
29/06:30pm 22.1 ESE 23 25 1014.8 - 0.0 - - - - - - -
29/06:00pm 22.1 ESE 23 28 1014.4 - 0.0 - - - - - - -
29/05:30pm 22.1 SE 26 29 1013.9 - 0.0 - - - - - - -
29/05:00pm 22.5 SE 25 29 1013.7 - 0.0 - - - - - - -
29/04:30pm 22.6 SE 27 31 1013.2 - 0.0 - - - - - - -
29/04:00pm 22.9 SE 28 32 1012.8 - 0.0 - - - - - - -
29/03:30pm 23.0 SE 26 30 1012.9 - 0.0 - - - - - - -
29/03:00pm 23.1 SE 27 31 1012.9 - 0.0 - - - - - - -
29/02:30pm 23.2 SE 27 31 1012.9 - 0.0 - - - - - - -
29/02:00pm 23.5 SE 26 30 1013.0 - 0.0 - - - - - - -
29/01:30pm 23.9 SE 25 29 1013.5 - 0.0 - - - - - - -
29/01:00pm 24.3 SE 25 28 1013.6 - 0.0 - - - - - - -
29/12:30pm 24.2 SE 23 28 1013.9 - 0.0 - - - - - - -
29/12:00pm 24.2 SSE 24 28 1014.1 - 0.0 - - - - - - -
29/11:30am 24.3 SSE 21 25 1014.4 - 0.0 - - - - - - -
29/11:00am 23.9 SSE 21 24 1014.5 - 0.0 - - - - - - -
29/10:30am 23.6 SSE 20 23 1014.6 - 0.0 - - - - - - -
29/10:00am 24.3 SSE 17 23 1014.6 - 0.0 - - - - - - -
29/09:30am 23.9 SSE 16 19 1014.7 - 0.0 - - - - - - -
29/09:00am 23.7 SSE 17 20 1014.7 - 0.2 - - - - - - -
29/08:30am 23.6 SSE 13 18 1014.4 - 0.2 - - - - - - -
29/08:00am 23.3 S 9 12 1014.3 - 0.2 - - - - - - -
29/07:30am 22.8 S 10 12 1014.0 - 0.2 - - - - - - -
29/07:00am 22.1 S 9 12 1013.6 - 0.2 - - - - - - -
29/06:30am 21.7 SSE 7 10 1013.3 - 0.2 - - - - - - -
29/06:00am 21.0 SSE 10 13 1012.9 - 0.2 Recent precip. - - - - - -
29/05:30am 20.4 S 11 12 1012.5 - 0.2 - - - - - - -
29/05:00am 20.6 S 10 13 1012.0 - 0.0 - - - - - - -
29/04:30am 20.8 S 9 12 1011.7 - 0.0 - - - - - - -
29/04:00am 20.8 S 8 10 1011.6 - 0.0 - - - - - - -
29/03:30am 20.5 S 9 11 1011.2 - 0.0 - - - - - - -
29/03:00am 20.4 SW 7 8 1011.3 - 0.0 - - - - - - -
29/02:30am 20.7 SW 6 7 1011.2 - 0.0 - - - - - - -
29/02:00am 20.8 SW 7 9 1011.0 - 0.0 - - - - - - -
29/01:30am 21.1 SSW 6 7 1010.9 - 0.0 - - - - - - -
29/01:00am 21.0 SSW 6 7 1010.9 - 0.0 - - - - - - -
29/12:30am 21.1 SSW 4 5 1011.4 - 0.0 - - - - - - -
29/12:00am 21.1 S 7 8 1011.4 - 0.0 - - - - - - -
 
Date/Time
EST
Temp

°C
Wind Pressure Rain
since 9am
mm
Weather Cloud Vis
km
Sea
Height
m
Swell
Dir
 
Speed
knots
Gust
knots
hPa Trend Height
m
Period
s
Dir
28/11:30pm 21.6 S 8 10 1011.7 - 0.0 - - - - - - -
28/11:00pm 21.6 S 9 10 1011.6 - 0.0 - - - - - - -
28/10:30pm 21.7 S 9 11 1011.4 - 0.0 - - - - - - -
28/10:00pm 21.8 S 9 11 1011.3 - 0.0 - - - - - - -
28/09:30pm 22.0 S 8 9 1011.3 - 0.0 - - - - - - -
28/09:00pm 22.1 S 8 10 1011.3 - 0.0 - - - - - - -
28/08:30pm 22.2 S 8 10 1011.5 - 0.0 - - - - - - -
28/08:00pm 22.2 S 7 9 1011.3 - 0.0 - - - - - - -
28/07:30pm 22.4 S 7 9 1011.2 - 0.0 - - - - - - -
28/07:00pm 22.5 S 7 8 1010.7 - 0.0 - - - - - - -
28/06:30pm 22.5 SSE 5 7 1010.4 - 0.0 - - - - - - -
28/06:00pm 22.6 SE 6 7 1009.8 - 0.0 - - - - - - -

Other Formats:

Comma delimited format used in spreadsheet applications
http://www.bom.gov.au/fwo/IDQ60701/IDQ60701.94594.axf

JavaScript Object Notation format (JSON) in row-major order
http://www.bom.gov.au/fwo/IDQ60701/IDQ60701.94594.json